Terminal Aerodrome Forecast
Issued by NWS

Home | Current Version | Previous Version | Text Only | Print | Product List | Glossary On
Versions: 1 2 3 4 5 6 7 8 9 10 11 12 13 14 15
000
FTUS42 KTBW 240500
TAFRSW
TAF
KRSW 240530Z 2406/2506 VRB04KT P6SM SKC
     FM241700 23010KT P6SM FEW035 SCT250
     FM250200 VRB04KT P6SM FEW250=

USA.gov is the U.S. government's official web portal to all federal, state and local government web resources and services.